createdAt,value
2018-07-11T00:01:24.704Z,97.40
2018-07-11T00:03:54.065Z,98.20
2018-07-11T00:06:23.613Z,98.00
2018-07-11T00:08:51.839Z,98.30
2018-07-11T00:11:20.129Z,98.50
2018-07-11T00:13:48.676Z,98.30
2018-07-11T00:16:17.244Z,98.40
2018-07-11T00:18:45.560Z,98.20
2018-07-11T00:21:13.901Z,98.50
2018-07-11T00:23:42.273Z,98.50
2018-07-11T00:26:11.200Z,98.50
2018-07-11T00:28:39.420Z,98.50
2018-07-11T00:33:35.796Z,98.50
2018-07-11T00:36:04.049Z,98.50
2018-07-11T00:38:32.445Z,98.50
2018-07-11T00:41:01.349Z,98.50
2018-07-11T00:43:32.021Z,98.50
2018-07-11T00:46:00.988Z,98.50
2018-07-11T00:48:29.345Z,98.50
2018-07-11T00:50:58.008Z,98.50
2018-07-11T00:53:28.744Z,98.50
2018-07-11T00:55:57.776Z,98.50
2018-07-11T00:58:34.614Z,98.50
2018-07-11T01:01:06.618Z,98.50
2018-07-11T01:03:37.735Z,98.50
2018-07-11T01:06:06.120Z,98.50
2018-07-11T01:08:36.413Z,98.50
2018-07-11T01:11:16.684Z,98.50
2018-07-11T01:13:46.307Z,98.50
2018-07-11T01:16:18.520Z,98.50
2018-07-11T01:18:53.745Z,98.50
2018-07-11T01:27:03.763Z,98.50
2018-07-11T01:29:31.945Z,98.50
2018-07-11T01:32:00.156Z,98.50
2018-07-11T01:34:28.348Z,98.50
2018-07-11T01:36:56.549Z,98.50
2018-07-11T01:39:24.789Z,98.50
2018-07-11T01:41:53.044Z,98.50
2018-07-11T01:44:21.296Z,98.50
2018-07-11T01:46:50.848Z,98.50
2018-07-11T01:49:19.241Z,98.50
2018-07-11T01:51:58.657Z,98.50
2018-07-11T01:54:28.031Z,98.50
2018-07-11T01:56:56.416Z,98.50
2018-07-11T01:59:34.238Z,98.50
2018-07-11T02:02:03.239Z,98.50
2018-07-11T02:04:32.366Z,98.50
2018-07-11T02:07:00.820Z,98.50
2018-07-11T02:09:29.712Z,98.50
2018-07-11T02:11:58.007Z,98.50
2018-07-11T02:14:26.500Z,98.50
2018-07-11T02:16:55.240Z,98.50
2018-07-11T02:19:23.626Z,98.50
2018-07-11T02:21:52.512Z,98.50
2018-07-11T02:24:22.055Z,98.50
2018-07-11T02:26:50.601Z,98.50
2018-07-11T02:29:18.977Z,98.50
2018-07-11T02:31:47.232Z,98.50
2018-07-11T02:34:15.660Z,98.50
2018-07-11T02:36:43.940Z,98.40
2018-07-11T02:39:12.137Z,98.50
2018-07-11T02:41:40.388Z,98.50
2018-07-11T02:44:08.645Z,98.50
2018-07-11T02:46:42.600Z,98.50
2018-07-11T02:49:10.828Z,98.50
2018-07-11T02:51:39.056Z,98.50
2018-07-11T02:54:07.407Z,98.50
2018-07-11T02:56:35.685Z,98.50
2018-07-11T02:59:03.858Z,98.50
2018-07-11T03:01:32.163Z,98.50
2018-07-11T03:04:00.381Z,98.50
2018-07-11T03:06:28.585Z,98.50
2018-07-11T03:08:56.787Z,98.50
2018-07-11T03:11:24.990Z,98.50
2018-07-11T03:13:53.196Z,98.50
2018-07-11T03:16:21.352Z,98.50
2018-07-11T03:18:49.636Z,98.50
2018-07-11T03:21:17.877Z,98.50
2018-07-11T03:23:46.140Z,98.50
2018-07-11T03:26:14.461Z,98.50
2018-07-11T03:28:42.716Z,98.50
2018-07-11T03:31:10.900Z,98.50
2018-07-11T03:33:39.116Z,98.50
2018-07-11T03:36:07.416Z,98.50
2018-07-11T03:38:35.734Z,98.50
2018-07-11T03:41:03.931Z,98.50
2018-07-11T03:43:32.182Z,98.50
2018-07-11T03:46:00.356Z,98.50
2018-07-11T03:48:28.605Z,98.50
2018-07-11T03:50:56.929Z,98.50
2018-07-11T03:53:25.101Z,98.50
2018-07-11T03:55:53.332Z,98.50
2018-07-11T03:58:21.504Z,98.50
2018-07-11T04:00:49.704Z,98.50
2018-07-11T04:03:17.930Z,98.50
2018-07-11T04:05:49.021Z,98.50
2018-07-11T04:08:17.216Z,98.50
2018-07-11T04:10:45.380Z,98.50
2018-07-11T04:13:17.861Z,98.50
2018-07-11T04:15:46.081Z,98.50
2018-07-11T04:18:19.688Z,98.50
2018-07-11T04:20:47.916Z,98.50
2018-07-11T04:23:16.085Z,98.50
2018-07-11T04:25:44.360Z,98.50
2018-07-11T04:28:12.625Z,98.50
2018-07-11T04:30:41.005Z,98.50
2018-07-11T04:33:09.213Z,98.50
2018-07-11T04:35:37.523Z,98.50
2018-07-11T04:38:06.102Z,98.50
2018-07-11T04:40:34.432Z,98.50
2018-07-11T04:43:02.825Z,98.50
2018-07-11T04:45:31.261Z,98.50
2018-07-11T04:47:59.625Z,98.50
2018-07-11T04:50:27.957Z,98.50
2018-07-11T04:52:56.309Z,98.50
2018-07-11T04:55:24.685Z,98.50
2018-07-11T04:57:52.848Z,98.50
2018-07-11T05:00:21.061Z,98.10
2018-07-11T05:02:49.309Z,98.50
2018-07-11T05:05:17.605Z,98.40
2018-07-11T05:07:45.820Z,97.80
2018-07-11T05:10:14.033Z,98.50
2018-07-11T05:12:42.227Z,98.30
2018-07-11T05:15:10.424Z,98.00
2018-07-11T05:17:38.644Z,97.20
2018-07-11T05:20:06.872Z,96.90
2018-07-11T05:22:35.044Z,96.50
2018-07-11T05:25:03.307Z,95.40
2018-07-11T05:27:31.557Z,93.20
2018-07-11T05:29:59.756Z,93.50
2018-07-11T05:32:27.961Z,91.70
2018-07-11T05:34:56.180Z,91.60
2018-07-11T05:37:24.338Z,92.80
2018-07-11T05:39:52.535Z,92.70
2018-07-11T05:42:20.794Z,91.70
2018-07-11T05:44:48.954Z,90.50
2018-07-11T05:47:17.165Z,90.30
2018-07-11T05:49:46.025Z,90.00
2018-07-11T05:52:14.281Z,89.70
2018-07-11T05:54:42.476Z,90.80
2018-07-11T05:57:10.657Z,91.10
2018-07-11T05:59:38.878Z,90.10
2018-07-11T06:02:07.121Z,89.60
2018-07-11T06:04:35.340Z,89.20
2018-07-11T06:07:03.685Z,87.40
2018-07-11T06:09:31.870Z,86.50
2018-07-11T06:12:00.074Z,88.20
2018-07-11T06:14:28.244Z,87.30
2018-07-11T06:16:56.892Z,87.50
2018-07-11T06:19:25.053Z,87.30
2018-07-11T06:21:53.270Z,86.10
2018-07-11T06:24:21.483Z,85.90
2018-07-11T06:26:49.681Z,86.10
2018-07-11T06:29:17.849Z,82.00
2018-07-11T06:31:46.051Z,81.00
2018-07-11T06:34:14.248Z,83.10
2018-07-11T06:36:42.401Z,81.60
2018-07-11T06:39:10.632Z,80.80
2018-07-11T06:41:38.798Z,80.40
2018-07-11T06:44:07.020Z,80.50
2018-07-11T06:46:35.270Z,80.50
2018-07-11T06:49:03.511Z,82.00
2018-07-11T06:51:31.703Z,78.50
2018-07-11T06:53:59.864Z,79.40
2018-07-11T06:56:28.082Z,77.40
2018-07-11T06:58:56.281Z,76.90
2018-07-11T07:01:24.471Z,77.30
2018-07-11T07:03:52.736Z,76.10
2018-07-11T07:06:20.918Z,77.30
2018-07-11T07:08:49.200Z,75.90
2018-07-11T07:11:17.430Z,75.10
2018-07-11T07:13:45.796Z,75.90
2018-07-11T07:16:13.969Z,74.80
2018-07-11T07:18:42.177Z,74.50
2018-07-11T07:21:10.397Z,76.10
2018-07-11T07:23:38.706Z,72.60
2018-07-11T07:26:06.925Z,73.00
2018-07-11T07:28:35.141Z,74.80
2018-07-11T07:31:03.322Z,77.30
2018-07-11T07:33:31.520Z,77.90
2018-07-11T07:35:59.676Z,77.20
2018-07-11T07:38:27.962Z,75.70
2018-07-11T07:40:56.125Z,73.90
2018-07-11T07:43:25.950Z,73.80
2018-07-11T07:45:54.270Z,73.50
2018-07-11T07:48:25.441Z,72.90
2018-07-11T07:50:53.742Z,73.50
2018-07-11T07:53:22.120Z,72.20
2018-07-11T07:55:50.382Z,72.40
2018-07-11T07:58:18.776Z,73.50
2018-07-11T08:00:47.058Z,72.40
2018-07-11T08:03:15.389Z,71.80
2018-07-11T08:05:43.745Z,75.90
2018-07-11T08:08:11.920Z,73.90
2018-07-11T08:10:40.129Z,74.50
2018-07-11T08:13:08.301Z,72.10
2018-07-11T08:15:36.532Z,71.20
2018-07-11T08:20:32.852Z,71.00
2018-07-11T08:23:13.861Z,71.40
2018-07-11T08:25:54.572Z,72.70
2018-07-11T08:33:16.760Z,70.90
2018-07-11T08:38:08.912Z,68.80
2018-07-11T08:42:54.193Z,69.70
2018-07-11T08:45:34.406Z,70.10
2018-07-11T08:48:31.392Z,69.70
2018-07-11T08:51:20.409Z,70.50
2018-07-11T08:54:00.986Z,69.10
2018-07-11T08:57:18.045Z,69.50
2018-07-11T08:59:58.461Z,69.30
2018-07-11T09:04:42.837Z,69.90
2018-07-11T09:09:27.822Z,69.70
2018-07-11T09:12:46.777Z,66.90
2018-07-11T09:16:26.168Z,67.90
2018-07-11T09:25:18.874Z,66.60
2018-07-11T09:27:47.050Z,68.30
2018-07-11T09:30:15.429Z,66.80
2018-07-11T09:32:43.812Z,65.40
2018-07-11T09:35:11.994Z,66.80
2018-07-11T09:37:40.207Z,67.20
2018-07-11T09:40:08.408Z,68.70
2018-07-11T09:42:36.788Z,69.30
2018-07-11T09:45:05.091Z,69.70
2018-07-11T09:47:33.484Z,71.00
2018-07-11T09:50:01.748Z,70.20
2018-07-11T09:52:29.971Z,67.90
2018-07-11T09:54:58.308Z,67.80
2018-07-11T09:57:27.736Z,67.70
2018-07-11T09:59:56.153Z,65.40
2018-07-11T10:02:24.433Z,65.60
2018-07-11T10:04:52.945Z,65.70
2018-07-11T10:07:21.513Z,64.40
2018-07-11T10:09:49.848Z,64.40
2018-07-11T10:12:18.071Z,65.80
2018-07-11T10:14:46.253Z,65.50
2018-07-11T10:17:14.497Z,66.30
2018-07-11T10:19:42.757Z,66.70
2018-07-11T10:22:11.153Z,66.30
2018-07-11T10:24:39.549Z,66.60
2018-07-11T10:27:07.720Z,67.10
2018-07-11T10:29:35.973Z,66.50
2018-07-11T10:32:04.180Z,66.10
2018-07-11T10:34:32.402Z,66.00
2018-07-11T10:37:00.638Z,64.60
2018-07-11T10:39:28.861Z,65.50
2018-07-11T10:41:57.049Z,66.60
2018-07-11T10:44:25.249Z,66.90
2018-07-11T10:46:59.261Z,66.90
2018-07-11T10:49:27.589Z,64.50
2018-07-11T10:51:55.853Z,67.40
2018-07-11T10:54:24.088Z,67.80
2018-07-11T10:56:52.325Z,67.90
2018-07-11T10:59:20.792Z,69.50
2018-07-11T11:01:48.968Z,69.40
2018-07-11T11:04:20.368Z,70.20
2018-07-11T11:06:48.539Z,70.10
2018-07-11T11:09:16.768Z,70.90
2018-07-11T11:11:45.162Z,69.20
2018-07-11T11:14:13.416Z,69.80
2018-07-11T11:16:41.720Z,70.50
2018-07-11T11:19:09.900Z,68.90
2018-07-11T11:21:38.224Z,70.10
2018-07-11T11:24:06.591Z,70.10
2018-07-11T11:26:34.940Z,68.10
2018-07-11T11:29:03.257Z,67.30
2018-07-11T11:31:31.449Z,65.80
2018-07-11T11:33:59.714Z,68.40
2018-07-11T11:36:27.909Z,71.80
2018-07-11T11:38:56.140Z,74.50
2018-07-11T11:41:24.415Z,74.60
2018-07-11T11:43:52.657Z,75.40
2018-07-11T11:46:20.841Z,76.70
2018-07-11T11:48:49.197Z,76.80
2018-07-11T11:51:17.388Z,76.70
2018-07-11T11:53:45.616Z,78.00
2018-07-11T11:56:13.877Z,79.20
2018-07-11T11:58:42.102Z,78.80
2018-07-11T12:01:10.313Z,77.20
2018-07-11T12:03:38.489Z,78.40
2018-07-11T12:06:06.717Z,77.20
2018-07-11T12:08:34.925Z,77.30
2018-07-11T12:11:03.245Z,75.70
2018-07-11T12:13:31.404Z,75.20
2018-07-11T12:15:59.803Z,76.50
2018-07-11T12:20:58.500Z,75.10
2018-07-11T12:23:26.896Z,76.00
2018-07-11T12:26:03.701Z,74.30
2018-07-11T12:28:31.960Z,71.20
2018-07-11T12:31:00.214Z,70.00
2018-07-11T12:33:28.665Z,70.60
2018-07-11T12:38:25.053Z,69.30
2018-07-11T12:40:53.295Z,67.00
2018-07-11T12:43:21.580Z,69.80
2018-07-11T12:45:49.776Z,67.70
2018-07-11T12:48:23.712Z,69.50
2018-07-11T12:50:52.000Z,70.60
2018-07-11T12:53:20.277Z,70.90
2018-07-11T12:55:48.569Z,72.30
2018-07-11T12:58:18.594Z,71.70
2018-07-11T13:00:47.429Z,71.80
2018-07-11T13:05:44.065Z,68.90
2018-07-11T13:08:12.452Z,68.90
2018-07-11T13:10:40.781Z,69.10
2018-07-11T13:15:36.957Z,66.80
2018-07-11T13:18:05.194Z,66.90
2018-07-11T13:20:33.392Z,66.60
2018-07-11T13:23:01.648Z,67.40
2018-07-11T13:25:29.925Z,67.80
2018-07-11T13:27:58.227Z,68.30
2018-07-11T13:30:26.457Z,67.80
2018-07-11T13:32:54.678Z,65.90
2018-07-11T13:35:22.891Z,66.30
2018-07-11T13:37:51.129Z,66.30
2018-07-11T13:42:47.316Z,63.90
2018-07-11T13:45:15.518Z,65.10
2018-07-11T13:47:43.669Z,63.90
2018-07-11T13:50:11.864Z,64.10
2018-07-11T13:52:40.249Z,65.70
2018-07-11T13:55:08.579Z,66.30
2018-07-11T13:57:36.968Z,63.40
2018-07-11T14:00:05.246Z,63.10
2018-07-11T14:02:33.529Z,63.40
2018-07-11T14:05:01.820Z,61.40
2018-07-11T14:07:30.182Z,62.50
2018-07-11T14:09:58.550Z,64.00
2018-07-11T14:12:26.906Z,63.50
2018-07-11T14:14:55.201Z,63.30
2018-07-11T14:17:23.944Z,64.00
2018-07-11T14:22:20.288Z,62.90
2018-07-11T14:24:48.646Z,62.50
2018-07-11T14:27:17.312Z,62.40
2018-07-11T14:29:45.756Z,62.50
2018-07-11T14:32:13.959Z,61.90
2018-07-11T14:34:42.201Z,61.40
2018-07-11T14:37:10.802Z,62.20
2018-07-11T14:39:39.059Z,61.10
2018-07-11T14:42:07.292Z,61.30
2018-07-11T14:44:35.653Z,60.90
2018-07-11T14:47:04.158Z,63.40
2018-07-11T14:49:32.525Z,63.10
2018-07-11T14:52:00.952Z,63.50
2018-07-11T14:54:29.265Z,64.60
2018-07-11T14:56:57.644Z,62.50
2018-07-11T14:59:26.071Z,65.10
2018-07-11T15:01:54.311Z,65.50
2018-07-11T15:04:22.545Z,65.30
2018-07-11T15:06:50.789Z,66.70
2018-07-11T15:09:19.601Z,67.30
2018-07-11T15:11:47.589Z,68.00
2018-07-11T15:14:15.843Z,70.00
2018-07-11T15:16:44.105Z,70.00
2018-07-11T15:19:12.434Z,70.90
2018-07-11T15:21:40.829Z,70.70
2018-07-11T15:24:09.549Z,69.70
2018-07-11T15:26:37.936Z,69.70
2018-07-11T15:29:06.537Z,70.30
2018-07-11T15:31:34.890Z,69.00
2018-07-11T15:34:03.208Z,68.20
2018-07-11T15:36:31.572Z,68.30
2018-07-11T15:38:59.985Z,69.10
2018-07-11T15:41:28.376Z,67.20
2018-07-11T15:43:56.772Z,67.80
2018-07-11T15:46:25.049Z,67.70
2018-07-11T15:48:53.483Z,68.00
2018-07-11T15:51:21.841Z,70.20
2018-07-11T15:53:50.229Z,70.90
2018-07-11T15:56:18.686Z,70.50
2018-07-11T15:58:51.443Z,68.10
2018-07-11T16:01:19.798Z,68.70
2018-07-11T16:03:48.574Z,68.40
2018-07-11T16:06:17.837Z,67.90
2018-07-11T16:08:49.245Z,68.20
2018-07-11T16:11:17.568Z,67.90
2018-07-11T16:13:45.781Z,69.60
2018-07-11T16:16:14.100Z,69.10
2018-07-11T16:18:42.368Z,69.50
2018-07-11T16:21:10.641Z,67.00
2018-07-11T16:23:38.974Z,67.10
2018-07-11T16:26:07.265Z,67.60
2018-07-11T16:28:35.560Z,67.10
2018-07-11T16:31:03.845Z,69.00
2018-07-11T16:33:32.134Z,67.70
2018-07-11T16:36:00.492Z,68.60
2018-07-11T16:38:28.824Z,68.90
2018-07-11T16:40:57.153Z,68.60
2018-07-11T16:43:25.988Z,68.20
2018-07-11T16:45:55.399Z,67.50
2018-07-11T16:48:23.741Z,67.40
2018-07-11T16:50:52.026Z,66.60
2018-07-11T16:53:20.411Z,67.40
2018-07-11T16:55:48.761Z,66.70
2018-07-11T16:58:22.930Z,67.10
2018-07-11T17:00:51.801Z,67.10
2018-07-11T17:03:20.192Z,67.90
2018-07-11T17:05:52.883Z,67.30
2018-07-11T17:08:30.116Z,68.50
2018-07-11T17:11:06.981Z,67.20
2018-07-11T17:13:35.366Z,66.80
2018-07-11T17:16:03.721Z,68.10
2018-07-11T17:18:40.075Z,68.90
2018-07-11T17:21:09.756Z,68.60
2018-07-11T17:23:47.198Z,69.10
2018-07-11T17:26:15.701Z,68.70
2018-07-11T17:28:44.089Z,69.60
2018-07-11T17:31:12.441Z,68.90
2018-07-11T17:33:40.928Z,68.70
2018-07-11T17:36:09.289Z,69.50
2018-07-11T17:38:37.671Z,70.20
2018-07-11T17:41:06.023Z,69.60
2018-07-11T17:43:36.487Z,68.90
2018-07-11T17:46:05.872Z,69.50
2018-07-11T17:48:43.756Z,69.50
2018-07-11T17:52:15.305Z,69.50
2018-07-11T17:55:18.204Z,70.20
2018-07-11T17:57:53.080Z,71.30
2018-07-11T18:00:32.793Z,71.40
2018-07-11T18:03:04.965Z,70.10
2018-07-11T18:05:40.497Z,70.50
2018-07-11T18:08:09.540Z,70.80
2018-07-11T18:10:49.270Z,70.70
2018-07-11T18:15:59.921Z,70.70
2018-07-11T18:18:36.048Z,70.10
2018-07-11T18:21:14.308Z,70.50
2018-07-11T18:25:54.928Z,71.70
2018-07-11T18:30:56.157Z,71.50
2018-07-11T18:33:36.223Z,72.10
2018-07-11T18:36:16.804Z,71.10
2018-07-11T18:39:05.608Z,73.70
2018-07-11T18:41:41.941Z,72.20
2018-07-11T18:44:17.668Z,72.30
2018-07-11T18:49:05.989Z,73.30
2018-07-11T18:51:48.011Z,73.00
2018-07-11T18:54:23.957Z,75.00
2018-07-11T18:57:31.182Z,74.20
2018-07-11T19:03:27.226Z,75.00
2018-07-11T19:06:36.148Z,73.60
2018-07-11T19:09:10.937Z,74.30
2018-07-11T19:11:54.101Z,75.20
2018-07-11T19:14:41.724Z,75.60
2018-07-11T19:17:22.764Z,74.80
2018-07-11T19:20:00.429Z,78.40
2018-07-11T19:22:42.736Z,76.70
2018-07-11T19:25:36.761Z,75.60
2018-07-11T19:28:16.168Z,80.30
2018-07-11T19:31:24.016Z,80.30
2018-07-11T19:35:58.977Z,77.00
2018-07-11T19:38:36.140Z,76.50
2018-07-11T19:41:25.162Z,75.80
2018-07-11T19:45:03.557Z,79.70
2018-07-11T19:47:42.853Z,80.60
2018-07-11T19:50:25.575Z,82.20
2018-07-11T19:53:16.877Z,81.90
2018-07-11T19:56:10.018Z,81.80
2018-07-11T19:58:38.445Z,81.10
2018-07-11T20:01:06.713Z,81.60
2018-07-11T20:03:35.070Z,80.40
2018-07-11T20:06:03.407Z,81.50
2018-07-11T20:08:31.709Z,81.20
2018-07-11T20:11:00.469Z,81.40
2018-07-11T20:13:28.733Z,80.70
2018-07-11T20:15:57.133Z,80.30
2018-07-11T20:18:25.413Z,80.50
2018-07-11T20:20:53.765Z,80.40
2018-07-11T20:23:22.021Z,80.90
2018-07-11T20:25:50.729Z,81.10
2018-07-11T20:28:19.291Z,82.10
2018-07-11T20:30:47.625Z,82.10
2018-07-11T20:33:17.380Z,82.70
2018-07-11T20:35:45.713Z,83.70
2018-07-11T20:38:13.933Z,83.40
2018-07-11T20:40:42.229Z,84.10
2018-07-11T20:43:10.632Z,84.40
2018-07-11T20:45:38.920Z,84.30
2018-07-11T20:48:07.271Z,84.80
2018-07-11T20:50:35.550Z,84.50
2018-07-11T20:53:03.833Z,84.60
2018-07-11T20:55:33.372Z,84.20
2018-07-11T20:58:12.629Z,83.60
2018-07-11T21:00:52.026Z,82.90
2018-07-11T21:05:37.254Z,83.30
2018-07-11T21:08:30.026Z,83.10
2018-07-11T21:11:18.614Z,83.90
2018-07-11T21:15:59.174Z,84.70
2018-07-11T21:18:53.951Z,85.20
2018-07-11T21:21:22.386Z,85.60
2018-07-11T21:23:50.599Z,85.00
2018-07-11T21:26:19.145Z,85.20
2018-07-11T21:28:47.551Z,84.60
2018-07-11T21:31:15.759Z,85.00
2018-07-11T21:33:44.462Z,84.90
2018-07-11T21:36:12.694Z,85.20
2018-07-11T21:38:40.881Z,84.90
2018-07-11T21:41:09.125Z,84.80
2018-07-11T21:43:37.384Z,84.80
2018-07-11T21:46:05.889Z,85.20
2018-07-11T21:48:34.168Z,84.80
2018-07-11T21:51:02.374Z,84.80
2018-07-11T21:53:30.632Z,85.10
2018-07-11T21:55:58.857Z,85.50
2018-07-11T21:58:27.737Z,85.40
2018-07-11T22:01:01.503Z,85.50
2018-07-11T22:03:29.893Z,85.60
2018-07-11T22:05:58.336Z,85.80
2018-07-11T22:08:26.573Z,86.10
2018-07-11T22:10:54.908Z,86.20
2018-07-11T22:13:23.084Z,86.20
2018-07-11T22:15:51.348Z,86.90
2018-07-11T22:18:36.130Z,87.10
2018-07-11T22:21:03.941Z,87.70
2018-07-11T22:23:30.928Z,87.30
2018-07-11T22:25:57.876Z,87.50
2018-07-11T22:28:24.729Z,87.40
2018-07-11T22:30:51.552Z,87.20
2018-07-11T22:33:18.411Z,87.10
2018-07-11T22:35:45.232Z,87.40
2018-07-11T22:38:12.545Z,87.10
2018-07-11T22:40:39.796Z,87.10
2018-07-11T22:43:06.934Z,87.20
2018-07-11T22:45:33.897Z,86.60
2018-07-11T22:48:00.807Z,87.20
2018-07-11T22:50:27.941Z,87.00
2018-07-11T22:52:54.794Z,87.50
2018-07-11T22:55:21.744Z,87.80
2018-07-11T22:57:48.921Z,87.70
2018-07-11T23:00:15.937Z,87.90
2018-07-11T23:02:42.758Z,87.70
2018-07-11T23:05:09.608Z,87.90
2018-07-11T23:07:36.425Z,88.50
2018-07-11T23:10:03.270Z,87.90
2018-07-11T23:12:30.117Z,87.40
2018-07-11T23:14:56.957Z,87.50
2018-07-11T23:17:23.772Z,87.60
2018-07-11T23:19:50.673Z,87.90
2018-07-11T23:22:17.528Z,87.90
2018-07-11T23:24:44.345Z,88.30
2018-07-11T23:27:11.200Z,88.50
2018-07-11T23:29:38.064Z,88.60
2018-07-11T23:32:04.881Z,88.50
2018-07-11T23:34:31.736Z,88.40
2018-07-11T23:36:58.559Z,87.90
2018-07-11T23:39:25.432Z,87.90
2018-07-11T23:41:52.298Z,87.40
2018-07-11T23:44:19.115Z,87.40
2018-07-11T23:46:45.957Z,87.90
2018-07-11T23:49:12.853Z,87.90
2018-07-11T23:51:39.770Z,87.90
2018-07-11T23:54:06.657Z,87.20
2018-07-11T23:56:33.468Z,88.30
2018-07-11T23:59:00.321Z,88.30
